CMP126 SLVR-MPTO
Flight info
| Callsign | CMP126 |
|---|---|
| Flight time | N/A |
| Altitude | 36000 |
| Route | PAKES UN420 LOBAL/N0453F380 UN420 IRATA SIRIL3 |
| Aircraft | B738/M-SDE2E3FGHIRWXY/LB1 |
Departure
| Time | N/A |
|---|---|
| Airport | Viru Viru International Airport (SLVR) |
Arrival
| Time | 2026-04-28 03:00 |
|---|---|
| Airport | Tocumen International Airport (MPTO) |
| Time | Latitude | Longitude | Altitude | Speed | Heading |
|---|---|---|---|---|---|
| 2026-04-28 02:05 | 4.41260 | -76.94149 | 37978 ft | 457 kts | 327° |
| 2026-04-28 02:06 | 4.46710 | -76.97424 | 37977 ft | 457 kts | 327° |
| 2026-04-28 02:06 | 4.52166 | -77.00704 | 37972 ft | 457 kts | 327° |
| 2026-04-28 02:07 | 4.57632 | -77.03991 | 37971 ft | 457 kts | 327° |
| 2026-04-28 02:07 | 4.63100 | -77.07279 | 37973 ft | 458 kts | 327° |
| 2026-04-28 02:08 | 4.68545 | -77.10554 | 37976 ft | 458 kts | 327° |
| 2026-04-28 02:08 | 4.74017 | -77.13845 | 37973 ft | 458 kts | 327° |
| 2026-04-28 02:09 | 4.79494 | -77.17141 | 37966 ft | 459 kts | 327° |
| 2026-04-28 02:09 | 4.84933 | -77.20414 | 37970 ft | 459 kts | 327° |
| 2026-04-28 02:10 | 4.90412 | -77.23712 | 37962 ft | 459 kts | 327° |
| 2026-04-28 02:10 | 4.95904 | -77.27018 | 37967 ft | 459 kts | 327° |
| 2026-04-28 02:11 | 5.01387 | -77.30319 | 37964 ft | 459 kts | 327° |
| 2026-04-28 02:11 | 5.06851 | -77.33610 | 37962 ft | 460 kts | 327° |
| 2026-04-28 02:12 | 5.12345 | -77.36919 | 37965 ft | 460 kts | 327° |
| 2026-04-28 02:12 | 5.17800 | -77.40206 | 37969 ft | 460 kts | 327° |
| 2026-04-28 02:13 | 5.23285 | -77.43512 | 37965 ft | 460 kts | 327° |
| 2026-04-28 02:13 | 5.28785 | -77.46826 | 37963 ft | 460 kts | 327° |
| 2026-04-28 02:14 | 5.34239 | -77.50114 | 37967 ft | 460 kts | 327° |
| 2026-04-28 02:14 | 5.39731 | -77.53426 | 37965 ft | 460 kts | 327° |
| 2026-04-28 02:15 | 5.47934 | -77.58374 | 37959 ft | 460 kts | 327° |
| 2026-04-28 02:16 | 5.53432 | -77.61691 | 37962 ft | 460 kts | 327° |
| 2026-04-28 02:16 | 5.58926 | -77.65007 | 37957 ft | 460 kts | 327° |
| 2026-04-28 02:17 | 5.64383 | -77.68301 | 37959 ft | 460 kts | 327° |
| 2026-04-28 02:17 | 5.69870 | -77.71613 | 37954 ft | 460 kts | 327° |
| 2026-04-28 02:18 | 5.75365 | -77.74931 | 37951 ft | 460 kts | 327° |
| 2026-04-28 02:18 | 5.79934 | -77.77691 | 37950 ft | 460 kts | 327° |
| 2026-04-28 02:19 | 5.86315 | -77.81546 | 37951 ft | 460 kts | 327° |
| 2026-04-28 02:19 | 5.90886 | -77.84308 | 37951 ft | 460 kts | 327° |
| 2026-04-28 02:20 | 5.96368 | -77.87621 | 37949 ft | 460 kts | 327° |
| 2026-04-28 02:20 | 6.01852 | -77.90936 | 37949 ft | 459 kts | 327° |
| 2026-04-28 02:21 | 6.07335 | -77.94252 | 37950 ft | 459 kts | 327° |
| 2026-04-28 02:21 | 6.12773 | -77.97541 | 37954 ft | 458 kts | 327° |
| 2026-04-28 02:22 | 6.18229 | -78.00842 | 37953 ft | 458 kts | 327° |
| 2026-04-28 02:22 | 6.23682 | -78.04142 | 37949 ft | 457 kts | 327° |
| 2026-04-28 02:23 | 6.29140 | -78.07445 | 37948 ft | 456 kts | 327° |
| 2026-04-28 02:23 | 6.34546 | -78.10719 | 37954 ft | 455 kts | 327° |
| 2026-04-28 02:24 | 6.39971 | -78.14004 | 37955 ft | 455 kts | 327° |
| 2026-04-28 02:24 | 6.45388 | -78.17285 | 37950 ft | 454 kts | 327° |
| 2026-04-28 02:25 | 6.50812 | -78.20572 | 37952 ft | 454 kts | 327° |
| 2026-04-28 02:25 | 6.56219 | -78.23849 | 37950 ft | 453 kts | 327° |
| 2026-04-28 02:26 | 6.61590 | -78.27105 | 37950 ft | 453 kts | 327° |
| 2026-04-28 02:26 | 6.66989 | -78.30380 | 37949 ft | 453 kts | 327° |
| 2026-04-28 02:27 | 6.72395 | -78.33658 | 37947 ft | 453 kts | 327° |
| 2026-04-28 02:27 | 6.77756 | -78.36899 | 37953 ft | 453 kts | 327° |
| 2026-04-28 02:28 | 6.83162 | -78.40164 | 37947 ft | 453 kts | 326° |
| 2026-04-28 02:28 | 6.88568 | -78.43431 | 37947 ft | 453 kts | 326° |
| 2026-04-28 02:29 | 6.93966 | -78.46696 | 37945 ft | 453 kts | 326° |
| 2026-04-28 02:29 | 6.99369 | -78.49965 | 37948 ft | 453 kts | 326° |
| 2026-04-28 02:29 | 7.02044 | -78.51584 | 37653 ft | 458 kts | 326° |
| 2026-04-28 02:30 | 7.04779 | -78.53241 | 37178 ft | 457 kts | 326° |
| 2026-04-28 02:30 | 7.07506 | -78.54891 | 36584 ft | 456 kts | 327° |
| 2026-04-28 02:30 | 7.10224 | -78.56535 | 36112 ft | 454 kts | 327° |
| 2026-04-28 02:30 | 7.12923 | -78.58169 | 35707 ft | 450 kts | 327° |
| 2026-04-28 02:31 | 7.15594 | -78.59786 | 35267 ft | 447 kts | 327° |
| 2026-04-28 02:31 | 7.18249 | -78.61393 | 34846 ft | 444 kts | 327° |
| 2026-04-28 02:31 | 7.20894 | -78.62996 | 34388 ft | 443 kts | 327° |
| 2026-04-28 02:31 | 7.23526 | -78.64591 | 33966 ft | 441 kts | 327° |
| 2026-04-28 02:32 | 7.26156 | -78.66185 | 33479 ft | 439 kts | 327° |
| 2026-04-28 02:32 | 7.28767 | -78.67767 | 33041 ft | 436 kts | 327° |
| 2026-04-28 02:32 | 7.31360 | -78.69339 | 32613 ft | 434 kts | 327° |
| 2026-04-28 02:32 | 7.33945 | -78.70906 | 32188 ft | 432 kts | 327° |
| 2026-04-28 02:33 | 7.36487 | -78.72447 | 31781 ft | 430 kts | 327° |
| 2026-04-28 02:33 | 7.39057 | -78.74005 | 31331 ft | 429 kts | 327° |
| 2026-04-28 02:33 | 7.41607 | -78.75553 | 30920 ft | 427 kts | 327° |
| 2026-04-28 02:33 | 7.44150 | -78.77095 | 30493 ft | 426 kts | 327° |
| 2026-04-28 02:34 | 7.46692 | -78.78637 | 30075 ft | 426 kts | 327° |
| 2026-04-28 02:34 | 7.49154 | -78.80270 | 29578 ft | 422 kts | 316° |
| 2026-04-28 02:34 | 7.51091 | -78.82406 | 29157 ft | 415 kts | 306° |
| 2026-04-28 02:34 | 7.52866 | -78.84690 | 28719 ft | 412 kts | 305° |
| 2026-04-28 02:35 | 7.54607 | -78.86973 | 28292 ft | 409 kts | 305° |
| 2026-04-28 02:35 | 7.56335 | -78.89238 | 27866 ft | 406 kts | 305° |
| 2026-04-28 02:35 | 7.58062 | -78.91485 | 27466 ft | 404 kts | 306° |
| 2026-04-28 02:35 | 7.59785 | -78.93713 | 27057 ft | 401 kts | 306° |
| 2026-04-28 02:36 | 7.61503 | -78.95920 | 26651 ft | 399 kts | 306° |
| 2026-04-28 02:36 | 7.63213 | -78.98111 | 26243 ft | 397 kts | 307° |
| 2026-04-28 02:36 | 7.64914 | -79.00287 | 25829 ft | 395 kts | 307° |
| 2026-04-28 02:36 | 7.66612 | -79.02457 | 25425 ft | 393 kts | 307° |
| 2026-04-28 02:37 | 7.68300 | -79.04614 | 25009 ft | 391 kts | 307° |
| 2026-04-28 02:37 | 7.69985 | -79.06767 | 24614 ft | 389 kts | 307° |
| 2026-04-28 02:37 | 7.71657 | -79.08905 | 24210 ft | 388 kts | 307° |
| 2026-04-28 02:37 | 7.73326 | -79.11038 | 23800 ft | 386 kts | 307° |
| 2026-04-28 02:38 | 7.74983 | -79.13158 | 23382 ft | 384 kts | 307° |
| 2026-04-28 02:38 | 7.76635 | -79.15270 | 22939 ft | 382 kts | 308° |
| 2026-04-28 02:38 | 7.78272 | -79.17364 | 22527 ft | 379 kts | 307° |
| 2026-04-28 02:38 | 7.79894 | -79.19440 | 22133 ft | 375 kts | 308° |
| 2026-04-28 02:39 | 7.81503 | -79.21498 | 21743 ft | 372 kts | 308° |
| 2026-04-28 02:39 | 7.83100 | -79.23541 | 21357 ft | 369 kts | 308° |
| 2026-04-28 02:39 | 7.84680 | -79.25564 | 20977 ft | 366 kts | 308° |
| 2026-04-28 02:39 | 7.86231 | -79.27550 | 20613 ft | 364 kts | 308° |
| 2026-04-28 02:40 | 7.87790 | -79.29545 | 20229 ft | 361 kts | 308° |
| 2026-04-28 02:40 | 7.89337 | -79.31527 | 19861 ft | 359 kts | 308° |
| 2026-04-28 02:40 | 7.90877 | -79.33499 | 19488 ft | 357 kts | 308° |
| 2026-04-28 02:40 | 7.92408 | -79.35460 | 19113 ft | 355 kts | 308° |
| 2026-04-28 02:41 | 7.93935 | -79.37416 | 18742 ft | 354 kts | 308° |
| 2026-04-28 02:41 | 7.95455 | -79.39364 | 18364 ft | 352 kts | 308° |
| 2026-04-28 02:41 | 7.96970 | -79.41305 | 17958 ft | 351 kts | 308° |
| 2026-04-28 02:41 | 7.98475 | -79.43234 | 17582 ft | 348 kts | 308° |
| 2026-04-28 02:42 | 7.99966 | -79.45146 | 17218 ft | 345 kts | 308° |
| 2026-04-28 02:42 | 8.01448 | -79.47045 | 16847 ft | 343 kts | 308° |
| 2026-04-28 02:42 | 8.02920 | -79.48932 | 16486 ft | 340 kts | 308° |
| 2026-04-28 02:42 | 8.04379 | -79.50804 | 16134 ft | 338 kts | 308° |
| 2026-04-28 02:43 | 8.05827 | -79.52660 | 15772 ft | 336 kts | 308° |
| 2026-04-28 02:43 | 8.07396 | -79.54377 | 15486 ft | 330 kts | 324° |
| 2026-04-28 02:43 | 8.09380 | -79.55398 | 15240 ft | 324 kts | 344° |
| 2026-04-28 02:43 | 8.11598 | -79.55687 | 14920 ft | 321 kts | 359° |
| 2026-04-28 02:44 | 8.13826 | -79.55682 | 14585 ft | 319 kts | 1° |
| 2026-04-28 02:44 | 8.16047 | -79.55634 | 14243 ft | 319 kts | 1° |
| 2026-04-28 02:44 | 8.18262 | -79.55580 | 13894 ft | 318 kts | 1° |
| 2026-04-28 02:44 | 8.20471 | -79.55532 | 13531 ft | 317 kts | 1° |
| 2026-04-28 02:45 | 8.22674 | -79.55490 | 13166 ft | 316 kts | 1° |
| 2026-04-28 02:45 | 8.24869 | -79.55454 | 12813 ft | 314 kts | 1° |
| 2026-04-28 02:45 | 8.27044 | -79.55421 | 12471 ft | 312 kts | 1° |
| 2026-04-28 02:45 | 8.29182 | -79.55391 | 12138 ft | 309 kts | 1° |
| 2026-04-28 02:46 | 8.31334 | -79.55362 | 11805 ft | 308 kts | 1° |
| 2026-04-28 02:46 | 8.33465 | -79.55334 | 11468 ft | 306 kts | 1° |
| 2026-04-28 02:46 | 8.35587 | -79.55307 | 11134 ft | 304 kts | 1° |
| 2026-04-28 02:46 | 8.37703 | -79.55280 | 10805 ft | 302 kts | 1° |
| 2026-04-28 02:47 | 8.39802 | -79.55253 | 10476 ft | 301 kts | 1° |
| 2026-04-28 02:47 | 8.41888 | -79.55227 | 10214 ft | 297 kts | 1° |
| 2026-04-28 02:47 | 8.43927 | -79.55201 | 10063 ft | 289 kts | 1° |
| 2026-04-28 02:47 | 8.45922 | -79.55176 | 9816 ft | 286 kts | 2° |
| 2026-04-28 02:48 | 8.47882 | -79.55151 | 9508 ft | 284 kts | 2° |
| 2026-04-28 02:48 | 8.49855 | -79.55126 | 9196 ft | 282 kts | 2° |
| 2026-04-28 02:48 | 8.51801 | -79.55101 | 8879 ft | 277 kts | 1° |
| 2026-04-28 02:48 | 8.53712 | -79.55077 | 8585 ft | 271 kts | 1° |
| 2026-04-28 02:49 | 8.55581 | -79.55053 | 8293 ft | 266 kts | 2° |
| 2026-04-28 02:49 | 8.57399 | -79.55030 | 8137 ft | 255 kts | 2° |
| 2026-04-28 02:49 | 8.59096 | -79.55009 | 8046 ft | 238 kts | 2° |
| 2026-04-28 02:49 | 8.60726 | -79.54989 | 7788 ft | 231 kts | 2° |
| 2026-04-28 02:50 | 8.62306 | -79.54969 | 7552 ft | 223 kts | 2° |
| 2026-04-28 02:50 | 8.63831 | -79.54949 | 7318 ft | 215 kts | 2° |
| 2026-04-28 02:50 | 8.65297 | -79.54931 | 7094 ft | 207 kts | 2° |
| 2026-04-28 02:50 | 8.66731 | -79.54912 | 6886 ft | 205 kts | 2° |
| 2026-04-28 02:51 | 8.68154 | -79.54893 | 6686 ft | 204 kts | 2° |
| 2026-04-28 02:51 | 8.69577 | -79.54875 | 6465 ft | 204 kts | 2° |
| 2026-04-28 02:51 | 8.71003 | -79.54856 | 6255 ft | 204 kts | 2° |
| 2026-04-28 02:51 | 8.72427 | -79.54838 | 6024 ft | 205 kts | 2° |
| 2026-04-28 02:52 | 8.72907 | -79.54832 | 5950 ft | 205 kts | 2° |
| 2026-04-28 02:52 | 8.74095 | -79.54817 | 5764 ft | 205 kts | 2° |
| 2026-04-28 02:52 | 8.75522 | -79.54798 | 5540 ft | 205 kts | 1° |
| 2026-04-28 02:52 | 8.76946 | -79.54780 | 5331 ft | 203 kts | 1° |
| 2026-04-28 02:53 | 8.78293 | -79.54572 | 5087 ft | 197 kts | 28° |
| 2026-04-28 02:53 | 8.79416 | -79.53808 | 4923 ft | 194 kts | 32° |
| 2026-04-28 02:53 | 8.80572 | -79.53117 | 4796 ft | 191 kts | 30° |
| 2026-04-28 02:53 | 8.81768 | -79.52431 | 4465 ft | 198 kts | 29° |
| 2026-04-28 02:54 | 8.82964 | -79.51747 | 4210 ft | 195 kts | 29° |
| 2026-04-28 02:54 | 8.84132 | -79.51079 | 3988 ft | 190 kts | 28° |
| 2026-04-28 02:54 | 8.85266 | -79.50430 | 3790 ft | 184 kts | 29° |
| 2026-04-28 02:54 | 8.86346 | -79.49811 | 3596 ft | 178 kts | 29° |
| 2026-04-28 02:55 | 8.87418 | -79.49197 | 3415 ft | 177 kts | 29° |
| 2026-04-28 02:55 | 8.88482 | -79.48587 | 3255 ft | 174 kts | 29° |
| 2026-04-28 02:55 | 8.89522 | -79.47992 | 3083 ft | 170 kts | 29° |
| 2026-04-28 02:55 | 8.90546 | -79.47405 | 2887 ft | 169 kts | 29° |
| 2026-04-28 02:56 | 8.91566 | -79.46821 | 2810 ft | 166 kts | 29° |
| 2026-04-28 02:56 | 8.92597 | -79.46230 | 2632 ft | 174 kts | 29° |
| 2026-04-28 02:56 | 8.93651 | -79.45627 | 2422 ft | 173 kts | 29° |
| 2026-04-28 02:56 | 8.94693 | -79.45030 | 2206 ft | 170 kts | 30° |
| 2026-04-28 02:57 | 8.95715 | -79.44444 | 1980 ft | 167 kts | 30° |
| 2026-04-28 02:57 | 8.96693 | -79.43883 | 1768 ft | 156 kts | 29° |
| 2026-04-28 02:57 | 8.97601 | -79.43364 | 1614 ft | 147 kts | 29° |
| 2026-04-28 02:57 | 8.98488 | -79.42855 | 1404 ft | 140 kts | 30° |
| 2026-04-28 02:58 | 8.99297 | -79.42392 | 1232 ft | 133 kts | 28° |
| 2026-04-28 02:58 | 9.00090 | -79.41945 | 1070 ft | 131 kts | 26° |
| 2026-04-28 02:58 | 9.00888 | -79.41501 | 937 ft | 132 kts | 29° |
| 2026-04-28 02:58 | 9.01670 | -79.41018 | 741 ft | 128 kts | 31° |
| 2026-04-28 02:59 | 9.02435 | -79.40582 | 635 ft | 126 kts | 27° |
| 2026-04-28 02:59 | 9.03223 | -79.40141 | 437 ft | 131 kts | 28° |
| 2026-04-28 02:59 | 9.04019 | -79.39685 | 226 ft | 131 kts | 28° |
| 2026-04-28 02:59 | 9.04797 | -79.39244 | 70 ft | 125 kts | 28° |
| 2026-04-28 03:00 | 9.05493 | -79.38847 | 29 ft | 100 kts | 30° |
| 2026-04-28 03:00 | 9.05971 | -79.38576 | 31 ft | 57 kts | 29° |
| 2026-04-28 03:00 | 9.06234 | -79.38426 | 30 ft | 31 kts | 30° |
| 2026-04-28 03:00 | 9.06380 | -79.38378 | 29 ft | 20 kts | 1° |
| 2026-04-28 03:01 | 9.06506 | -79.38377 | 29 ft | 16 kts | 0° |
| 2026-04-28 03:01 | 9.06603 | -79.38380 | 29 ft | 12 kts | 348° |
| 2026-04-28 03:01 | 9.06663 | -79.38429 | 29 ft | 10 kts | 321° |
| 2026-04-28 03:01 | 9.06730 | -79.38422 | 29 ft | 10 kts | 25° |
| 2026-04-28 03:02 | 9.06792 | -79.38391 | 29 ft | 10 kts | 26° |
| 2026-04-28 03:02 | 9.06855 | -79.38375 | 29 ft | 9 kts | 349° |
| 2026-04-28 03:02 | 9.06899 | -79.38421 | 29 ft | 9 kts | 299° |
| 2026-04-28 03:02 | 9.06945 | -79.38460 | 29 ft | 9 kts | 354° |
| 2026-04-28 03:03 | 9.07003 | -79.38440 | 29 ft | 9 kts | 27° |
| 2026-04-28 03:03 | 9.07056 | -79.38412 | 29 ft | 9 kts | 28° |
| 2026-04-28 03:03 | 9.07110 | -79.38389 | 29 ft | 8 kts | 4° |
| 2026-04-28 03:03 | 9.07156 | -79.38418 | 29 ft | 8 kts | 303° |
| 2026-04-28 03:04 | 9.07185 | -79.38466 | 30 ft | 8 kts | 301° |
| 2026-04-28 03:04 | 9.07213 | -79.38512 | 31 ft | 8 kts | 301° |
| 2026-04-28 03:04 | 9.07235 | -79.38559 | 32 ft | 7 kts | 273° |
| 2026-04-28 03:04 | 9.07201 | -79.38595 | 33 ft | 7 kts | 211° |
| 2026-04-28 03:05 | 9.07156 | -79.38620 | 32 ft | 8 kts | 208° |
| 2026-04-28 03:05 | 9.07110 | -79.38644 | 31 ft | 5 kts | 199° |
| 2026-04-28 03:05 | 9.07083 | -79.38632 | 31 ft | 3 kts | 133° |
| 2026-04-28 03:05 | 9.07075 | -79.38621 | 30 ft | 2 kts | 126° |
| 2026-04-28 03:06 | 9.07071 | -79.38616 | 30 ft | 0 kts | 124° |